sensor_id;sensor_type;location;lat;lon;timestamp;pressure;altitude;pressure_sealevel;temperature;humidity
76137;BME280;68622;53.128;17.966;2023-11-21T00:01:10;100670.39;;;3.58;70.99
76137;BME280;68622;53.128;17.966;2023-11-21T00:03:39;100671.17;;;3.57;71.02
76137;BME280;68622;53.128;17.966;2023-11-21T00:06:07;100675.48;;;3.53;71.14
76137;BME280;68622;53.128;17.966;2023-11-21T00:08:34;100678.40;;;3.51;71.46
76137;BME280;68622;53.128;17.966;2023-11-21T00:11:00;100684.30;;;3.50;71.33
76137;BME280;68622;53.128;17.966;2023-11-21T00:13:27;100684.88;;;3.45;71.42
76137;BME280;68622;53.128;17.966;2023-11-21T00:15:53;100688.50;;;3.45;71.68
76137;BME280;68622;53.128;17.966;2023-11-21T00:18:19;100692.92;;;3.46;71.52
76137;BME280;68622;53.128;17.966;2023-11-21T00:20:45;100694.61;;;3.43;71.57
76137;BME280;68622;53.128;17.966;2023-11-21T00:23:10;100696.62;;;3.41;71.54
76137;BME280;68622;53.128;17.966;2023-11-21T00:25:36;100695.61;;;3.40;71.88
76137;BME280;68622;53.128;17.966;2023-11-21T00:28:03;100699.00;;;3.44;71.84
76137;BME280;68622;53.128;17.966;2023-11-21T00:30:30;100696.48;;;3.46;71.96
76137;BME280;68622;53.128;17.966;2023-11-21T00:32:56;100697.48;;;3.47;71.35
76137;BME280;68622;53.128;17.966;2023-11-21T00:35:22;100698.87;;;3.46;71.37
76137;BME280;68622;53.128;17.966;2023-11-21T00:37:48;100699.52;;;3.47;71.70
76137;BME280;68622;53.128;17.966;2023-11-21T00:40:15;100702.05;;;3.48;71.72
76137;BME280;68622;53.128;17.966;2023-11-21T00:42:41;100705.17;;;3.50;71.26
76137;BME280;68622;53.128;17.966;2023-11-21T00:45:08;100710.32;;;3.50;71.89
76137;BME280;68622;53.128;17.966;2023-11-21T00:47:34;100716.17;;;3.50;71.55
76137;BME280;68622;53.128;17.966;2023-11-21T00:50:00;100719.80;;;3.49;71.54
76137;BME280;68622;53.128;17.966;2023-11-21T00:52:26;100720.45;;;3.50;71.64
76137;BME280;68622;53.128;17.966;2023-11-21T00:54:52;100730.63;;;3.52;71.49
76137;BME280;68622;53.128;17.966;2023-11-21T00:57:18;100724.19;;;3.53;71.62
76137;BME280;68622;53.128;17.966;2023-11-21T00:59:44;100730.46;;;3.54;71.45
76137;BME280;68622;53.128;17.966;2023-11-21T01:02:09;100729.13;;;3.48;71.29
76137;BME280;68622;53.128;17.966;2023-11-21T01:04:36;100731.19;;;3.42;71.20
76137;BME280;68622;53.128;17.966;2023-11-21T01:07:02;100729.77;;;3.37;71.45
76137;BME280;68622;53.128;17.966;2023-11-21T01:09:29;100730.83;;;3.36;71.14
76137;BME280;68622;53.128;17.966;2023-11-21T01:11:55;100739.99;;;3.35;71.34
76137;BME280;68622;53.128;17.966;2023-11-21T01:14:22;100740.99;;;3.27;71.00
76137;BME280;68622;53.128;17.966;2023-11-21T01:16:48;100744.41;;;3.27;71.12
76137;BME280;68622;53.128;17.966;2023-11-21T01:19:14;100745.14;;;3.26;71.07
76137;BME280;68622;53.128;17.966;2023-11-21T01:21:40;100746.05;;;3.28;71.27
76137;BME280;68622;53.128;17.966;2023-11-21T01:24:07;100751.84;;;3.29;71.10
76137;BME280;68622;53.128;17.966;2023-11-21T01:26:33;100754.13;;;3.31;71.18
76137;BME280;68622;53.128;17.966;2023-11-21T01:29:01;100751.98;;;3.29;71.08
76137;BME280;68622;53.128;17.966;2023-11-21T01:31:26;100758.89;;;3.26;70.92
76137;BME280;68622;53.128;17.966;2023-11-21T01:33:55;100763.30;;;3.24;70.92
76137;BME280;68622;53.128;17.966;2023-11-21T01:36:22;100763.46;;;3.20;70.85
76137;BME280;68622;53.128;17.966;2023-11-21T01:38:48;100761.14;;;3.17;70.84
76137;BME280;68622;53.128;17.966;2023-11-21T01:41:15;100753.97;;;3.16;70.97
76137;BME280;68622;53.128;17.966;2023-11-21T01:43:41;100755.83;;;3.13;70.66
76137;BME280;68622;53.128;17.966;2023-11-21T01:46:08;100757.46;;;3.12;71.12
76137;BME280;68622;53.128;17.966;2023-11-21T01:48:35;100761.34;;;3.13;71.39
76137;BME280;68622;53.128;17.966;2023-11-21T01:51:02;100768.15;;;3.10;71.50
76137;BME280;68622;53.128;17.966;2023-11-21T01:53:28;100779.95;;;3.08;70.92
76137;BME280;68622;53.128;17.966;2023-11-21T01:55:56;100778.20;;;3.05;71.06
76137;BME280;68622;53.128;17.966;2023-11-21T01:58:22;100781.45;;;3.06;71.17
76137;BME280;68622;53.128;17.966;2023-11-21T02:00:48;100783.08;;;3.07;71.12
76137;BME280;68622;53.128;17.966;2023-11-21T02:03:16;100781.10;;;3.06;71.09
76137;BME280;68622;53.128;17.966;2023-11-21T02:05:43;100780.67;;;3.07;71.34
76137;BME280;68622;53.128;17.966;2023-11-21T02:08:08;100780.08;;;3.09;71.15
76137;BME280;68622;53.128;17.966;2023-11-21T02:10:35;100782.91;;;3.07;71.33
76137;BME280;68622;53.128;17.966;2023-11-21T02:13:03;100784.35;;;3.06;70.93
76137;BME280;68622;53.128;17.966;2023-11-21T02:15:29;100784.61;;;3.07;71.11
76137;BME280;68622;53.128;17.966;2023-11-21T02:17:55;100789.42;;;3.10;71.22
76137;BME280;68622;53.128;17.966;2023-11-21T02:20:22;100787.67;;;3.11;70.74
76137;BME280;68622;53.128;17.966;2023-11-21T02:22:51;100786.08;;;3.09;70.87
76137;BME280;68622;53.128;17.966;2023-11-21T02:25:30;100784.25;;;3.05;70.56
76137;BME280;68622;53.128;17.966;2023-11-21T02:27:59;100786.66;;;2.98;70.85
76137;BME280;68622;53.128;17.966;2023-11-21T02:30:26;100788.72;;;2.95;70.94
76137;BME280;68622;53.128;17.966;2023-11-21T02:32:54;100791.40;;;2.90;71.00
76137;BME280;68622;53.128;17.966;2023-11-21T02:35:21;100790.20;;;2.90;70.44
76137;BME280;68622;53.128;17.966;2023-11-21T02:37:47;100790.05;;;2.89;70.74
76137;BME280;68622;53.128;17.966;2023-11-21T02:40:13;100797.48;;;2.88;70.52
76137;BME280;68622;53.128;17.966;2023-11-21T02:42:47;100796.33;;;2.82;71.06
76137;BME280;68622;53.128;17.966;2023-11-21T02:45:14;100797.98;;;2.79;70.78
76137;BME280;68622;53.128;17.966;2023-11-21T02:47:43;100802.38;;;2.77;70.89
76137;BME280;68622;53.128;17.966;2023-11-21T02:50:09;100804.05;;;2.78;70.73
76137;BME280;68622;53.128;17.966;2023-11-21T02:52:36;100810.91;;;2.72;70.73
76137;BME280;68622;53.128;17.966;2023-11-21T02:55:03;100813.66;;;2.69;70.95
76137;BME280;68622;53.128;17.966;2023-11-21T02:57:29;100816.84;;;2.67;70.78
76137;BME280;68622;53.128;17.966;2023-11-21T02:59:55;100820.83;;;2.65;70.48
76137;BME280;68622;53.128;17.966;2023-11-21T03:02:21;100824.58;;;2.66;71.09
76137;BME280;68622;53.128;17.966;2023-11-21T03:04:48;100824.30;;;2.61;70.32
76137;BME280;68622;53.128;17.966;2023-11-21T03:07:15;100826.39;;;2.57;70.48
76137;BME280;68622;53.128;17.966;2023-11-21T03:09:41;100828.31;;;2.53;70.46
76137;BME280;68622;53.128;17.966;2023-11-21T03:12:09;100829.06;;;2.52;70.15
76137;BME280;68622;53.128;17.966;2023-11-21T03:14:35;100831.95;;;2.50;70.09
76137;BME280;68622;53.128;17.966;2023-11-21T03:17:01;100835.08;;;2.49;70.37
76137;BME280;68622;53.128;17.966;2023-11-21T03:19:27;100839.09;;;2.51;70.37
76137;BME280;68622;53.128;17.966;2023-11-21T03:21:54;100838.30;;;2.53;70.14
76137;BME280;68622;53.128;17.966;2023-11-21T03:24:20;100842.41;;;2.52;70.43
76137;BME280;68622;53.128;17.966;2023-11-21T03:26:46;100844.36;;;2.54;70.43
76137;BME280;68622;53.128;17.966;2023-11-21T03:29:12;100847.92;;;2.55;70.08
76137;BME280;68622;53.128;17.966;2023-11-21T03:31:39;100852.34;;;2.56;70.00
76137;BME280;68622;53.128;17.966;2023-11-21T03:34:06;100851.27;;;2.53;69.89
76137;BME280;68622;53.128;17.966;2023-11-21T03:36:33;100851.91;;;2.45;69.40
76137;BME280;68622;53.128;17.966;2023-11-21T03:38:58;100854.52;;;2.44;69.90
76137;BME280;68622;53.128;17.966;2023-11-21T03:41:24;100852.40;;;2.38;69.82
76137;BME280;68622;53.128;17.966;2023-11-21T03:43:51;100852.57;;;2.39;70.15
76137;BME280;68622;53.128;17.966;2023-11-21T03:46:16;100855.66;;;2.39;70.22
76137;BME280;68622;53.128;17.966;2023-11-21T03:48:43;100859.02;;;2.43;70.08
76137;BME280;68622;53.128;17.966;2023-11-21T03:51:09;100855.64;;;2.42;69.57
76137;BME280;68622;53.128;17.966;2023-11-21T03:53:35;100846.09;;;2.44;69.70
76137;BME280;68622;53.128;17.966;2023-11-21T03:56:02;100847.80;;;2.48;70.08
76137;BME280;68622;53.128;17.966;2023-11-21T03:58:29;100849.14;;;2.49;69.48
76137;BME280;68622;53.128;17.966;2023-11-21T04:00:55;100849.12;;;2.45;69.48
76137;BME280;68622;53.128;17.966;2023-11-21T04:03:21;100853.44;;;2.45;69.82
76137;BME280;68622;53.128;17.966;2023-11-21T04:05:47;100854.84;;;2.47;69.59
76137;BME280;68622;53.128;17.966;2023-11-21T04:08:13;100860.57;;;2.49;69.58
76137;BME280;68622;53.128;17.966;2023-11-21T04:10:39;100860.84;;;2.51;69.77
76137;BME280;68622;53.128;17.966;2023-11-21T04:13:05;100866.37;;;2.50;69.65
76137;BME280;68622;53.128;17.966;2023-11-21T04:15:32;100867.41;;;2.50;69.82
76137;BME280;68622;53.128;17.966;2023-11-21T04:17:58;100870.48;;;2.50;69.66
76137;BME280;68622;53.128;17.966;2023-11-21T04:20:24;100876.85;;;2.49;69.34
76137;BME280;68622;53.128;17.966;2023-11-21T04:22:51;100879.51;;;2.41;69.38
76137;BME280;68622;53.128;17.966;2023-11-21T04:25:17;100884.27;;;2.42;69.27
76137;BME280;68622;53.128;17.966;2023-11-21T04:27:44;100881.38;;;2.41;69.33
76137;BME280;68622;53.128;17.966;2023-11-21T04:30:12;100884.08;;;2.42;69.73
76137;BME280;68622;53.128;17.966;2023-11-21T04:32:38;100884.71;;;2.43;69.64
76137;BME280;68622;53.128;17.966;2023-11-21T04:35:10;100891.25;;;2.39;69.26
76137;BME280;68622;53.128;17.966;2023-11-21T04:37:36;100885.68;;;2.34;69.10
76137;BME280;68622;53.128;17.966;2023-11-21T04:40:03;100891.52;;;2.34;69.25
76137;BME280;68622;53.128;17.966;2023-11-21T04:42:35;100897.30;;;2.31;69.41
76137;BME280;68622;53.128;17.966;2023-11-21T04:45:02;100896.45;;;2.24;68.84
76137;BME280;68622;53.128;17.966;2023-11-21T04:47:33;100898.48;;;2.24;68.85
76137;BME280;68622;53.128;17.966;2023-11-21T04:49:59;100904.93;;;2.22;68.89
76137;BME280;68622;53.128;17.966;2023-11-21T04:52:25;100910.41;;;2.19;68.48
76137;BME280;68622;53.128;17.966;2023-11-21T04:54:51;100910.98;;;2.21;68.75
76137;BME280;68622;53.128;17.966;2023-11-21T04:57:17;100920.16;;;2.19;68.68
76137;BME280;68622;53.128;17.966;2023-11-21T04:59:44;100924.21;;;2.13;68.77
76137;BME280;68622;53.128;17.966;2023-11-21T05:02:10;100927.15;;;2.13;68.76
76137;BME280;68622;53.128;17.966;2023-11-21T05:04:38;100929.13;;;2.11;68.41
76137;BME280;68622;53.128;17.966;2023-11-21T05:07:05;100933.15;;;2.12;68.66
76137;BME280;68622;53.128;17.966;2023-11-21T05:09:31;100933.55;;;2.15;69.02
76137;BME280;68622;53.128;17.966;2023-11-21T05:11:58;100938.81;;;2.15;68.77
76137;BME280;68622;53.128;17.966;2023-11-21T05:14:24;100937.48;;;2.11;68.49
76137;BME280;68622;53.128;17.966;2023-11-21T05:16:50;100937.84;;;2.10;68.58
76137;BME280;68622;53.128;17.966;2023-11-21T05:19:17;100939.67;;;2.12;68.38
76137;BME280;68622;53.128;17.966;2023-11-21T05:21:43;100940.16;;;2.09;68.55
76137;BME280;68622;53.128;17.966;2023-11-21T05:24:09;100939.64;;;2.09;68.73
76137;BME280;68622;53.128;17.966;2023-11-21T05:26:35;100943.27;;;2.12;68.80
76137;BME280;68622;53.128;17.966;2023-11-21T05:29:01;100947.48;;;2.13;68.50
76137;BME280;68622;53.128;17.966;2023-11-21T05:31:27;100953.79;;;2.10;68.32
76137;BME280;68622;53.128;17.966;2023-11-21T05:33:53;100957.25;;;2.09;68.52
76137;BME280;68622;53.128;17.966;2023-11-21T05:36:19;100959.92;;;2.10;68.46
76137;BME280;68622;53.128;17.966;2023-11-21T05:38:44;100966.73;;;2.11;68.58
76137;BME280;68622;53.128;17.966;2023-11-21T05:41:11;100967.98;;;2.14;68.59
76137;BME280;68622;53.128;17.966;2023-11-21T05:43:39;100971.08;;;2.13;68.54
76137;BME280;68622;53.128;17.966;2023-11-21T05:46:05;100975.03;;;2.13;68.55
76137;BME280;68622;53.128;17.966;2023-11-21T05:48:33;100977.23;;;2.10;68.64
76137;BME280;68622;53.128;17.966;2023-11-21T05:50:59;100981.62;;;2.11;68.74
76137;BME280;68622;53.128;17.966;2023-11-21T05:53:25;100980.08;;;2.11;68.63
76137;BME280;68622;53.128;17.966;2023-11-21T05:55:50;100982.90;;;2.13;68.57
76137;BME280;68622;53.128;17.966;2023-11-21T05:58:16;100988.73;;;2.12;68.64
76137;BME280;68622;53.128;17.966;2023-11-21T06:00:42;100992.77;;;2.14;68.68
76137;BME280;68622;53.128;17.966;2023-11-21T06:03:08;100998.20;;;2.15;68.76
76137;BME280;68622;53.128;17.966;2023-11-21T06:05:34;101000.44;;;2.15;68.58
76137;BME280;68622;53.128;17.966;2023-11-21T06:08:00;101004.40;;;2.18;69.12
76137;BME280;68622;53.128;17.966;2023-11-21T06:10:27;101010.23;;;2.21;68.91
76137;BME280;68622;53.128;17.966;2023-11-21T06:12:54;101012.00;;;2.16;68.32
76137;BME280;68622;53.128;17.966;2023-11-21T06:15:20;101017.27;;;2.17;68.18
76137;BME280;68622;53.128;17.966;2023-11-21T06:17:48;101017.14;;;2.16;68.68
76137;BME280;68622;53.128;17.966;2023-11-21T06:20:21;101020.68;;;2.21;68.93
76137;BME280;68622;53.128;17.966;2023-11-21T06:22:49;101029.80;;;2.23;68.71
76137;BME280;68622;53.128;17.966;2023-11-21T06:25:16;101031.05;;;2.18;67.94
76137;BME280;68622;53.128;17.966;2023-11-21T06:27:47;101038.94;;;2.22;68.59
76137;BME280;68622;53.128;17.966;2023-11-21T06:30:14;101045.88;;;2.23;68.48
76137;BME280;68622;53.128;17.966;2023-11-21T06:32:42;101049.17;;;2.22;67.80
76137;BME280;68622;53.128;17.966;2023-11-21T06:35:12;101055.52;;;2.19;67.40
76137;BME280;68622;53.128;17.966;2023-11-21T06:37:39;101058.60;;;2.12;66.95
76137;BME280;68622;53.128;17.966;2023-11-21T06:40:05;101060.65;;;2.08;67.47
76137;BME280;68622;53.128;17.966;2023-11-21T06:42:32;101066.03;;;2.03;67.29
76137;BME280;68622;53.128;17.966;2023-11-21T06:45:00;101071.60;;;2.01;67.10
76137;BME280;68622;53.128;17.966;2023-11-21T06:47:29;101066.45;;;1.98;67.23
76137;BME280;68622;53.128;17.966;2023-11-21T06:49:56;101072.63;;;2.01;67.03
76137;BME280;68622;53.128;17.966;2023-11-21T06:52:23;101072.94;;;2.01;67.10
76137;BME280;68622;53.128;17.966;2023-11-21T06:54:49;101075.19;;;2.05;67.01
76137;BME280;68622;53.128;17.966;2023-11-21T06:57:15;101080.03;;;2.07;67.18
76137;BME280;68622;53.128;17.966;2023-11-21T06:59:41;101082.83;;;2.06;66.48
76137;BME280;68622;53.128;17.966;2023-11-21T07:02:07;101088.33;;;2.09;66.98
76137;BME280;68622;53.128;17.966;2023-11-21T07:04:33;101093.10;;;2.09;66.38
76137;BME280;68622;53.128;17.966;2023-11-21T07:06:59;101100.27;;;2.10;66.06
76137;BME280;68622;53.128;17.966;2023-11-21T07:09:25;101101.05;;;2.11;66.21
76137;BME280;68622;53.128;17.966;2023-11-21T07:11:54;101104.00;;;2.17;66.85
76137;BME280;68622;53.128;17.966;2023-11-21T07:14:21;101104.43;;;2.23;66.80
76137;BME280;68622;53.128;17.966;2023-11-21T07:16:47;101107.71;;;2.19;65.95
76137;BME280;68622;53.128;17.966;2023-11-21T07:19:14;101107.36;;;2.23;66.30
76137;BME280;68622;53.128;17.966;2023-11-21T07:21:41;101114.09;;;2.25;66.14
76137;BME280;68622;53.128;17.966;2023-11-21T07:24:08;101116.89;;;2.24;65.86
76137;BME280;68622;53.128;17.966;2023-11-21T07:26:37;101116.58;;;2.23;65.19
76137;BME280;68622;53.128;17.966;2023-11-21T07:29:04;101123.63;;;2.22;65.39
76137;BME280;68622;53.128;17.966;2023-11-21T07:31:32;101133.13;;;2.24;65.48
76137;BME280;68622;53.128;17.966;2023-11-21T07:34:00;101126.14;;;2.27;65.78
76137;BME280;68622;53.128;17.966;2023-11-21T07:36:26;101130.16;;;2.33;65.53
76137;BME280;68622;53.128;17.966;2023-11-21T07:38:53;101133.77;;;2.33;65.81
76137;BME280;68622;53.128;17.966;2023-11-21T07:41:20;101138.26;;;2.32;65.75
76137;BME280;68622;53.128;17.966;2023-11-21T07:43:47;101147.02;;;2.27;64.64
76137;BME280;68622;53.128;17.966;2023-11-21T07:46:13;101144.33;;;2.22;64.07
76137;BME280;68622;53.128;17.966;2023-11-21T07:48:40;101135.98;;;2.25;64.47
76137;BME280;68622;53.128;17.966;2023-11-21T07:51:09;101132.38;;;2.29;64.37
76137;BME280;68622;53.128;17.966;2023-11-21T07:53:36;101134.90;;;2.30;64.01
76137;BME280;68622;53.128;17.966;2023-11-21T07:56:04;101143.09;;;2.27;63.44
76137;BME280;68622;53.128;17.966;2023-11-21T07:58:30;101137.25;;;2.31;64.03
76137;BME280;68622;53.128;17.966;2023-11-21T08:00:56;101146.81;;;2.35;63.74
76137;BME280;68622;53.128;17.966;2023-11-21T08:03:22;101137.66;;;2.37;63.74
76137;BME280;68622;53.128;17.966;2023-11-21T08:05:49;101144.11;;;2.45;63.49
76137;BME280;68622;53.128;17.966;2023-11-21T08:08:15;101143.32;;;2.54;63.84
76137;BME280;68622;53.128;17.966;2023-11-21T08:10:45;101149.16;;;2.58;62.85
76137;BME280;68622;53.128;17.966;2023-11-21T08:13:14;101150.23;;;2.60;62.81
76137;BME280;68622;53.128;17.966;2023-11-21T08:15:43;101152.59;;;2.68;63.16
76137;BME280;68622;53.128;17.966;2023-11-21T08:18:12;101151.20;;;2.72;62.74
76137;BME280;68622;53.128;17.966;2023-11-21T08:20:40;101154.22;;;2.70;61.59
76137;BME280;68622;53.128;17.966;2023-11-21T08:23:06;101158.42;;;2.72;62.21
76137;BME280;68622;53.128;17.966;2023-11-21T08:25:32;101157.57;;;2.75;62.34
76137;BME280;68622;53.128;17.966;2023-11-21T08:28:00;101158.38;;;2.76;62.38
76137;BME280;68622;53.128;17.966;2023-11-21T08:30:27;101155.23;;;2.84;62.92
76137;BME280;68622;53.128;17.966;2023-11-21T08:32:56;101156.67;;;2.86;62.38
76137;BME280;68622;53.128;17.966;2023-11-21T08:35:26;101159.20;;;2.87;62.50
76137;BME280;68622;53.128;17.966;2023-11-21T08:37:52;101164.48;;;2.81;61.36
76137;BME280;68622;53.128;17.966;2023-11-21T08:40:19;101154.26;;;2.80;61.79
76137;BME280;68622;53.128;17.966;2023-11-21T08:42:47;101158.05;;;2.90;62.30
76137;BME280;68622;53.128;17.966;2023-11-21T08:45:14;101159.45;;;2.99;61.94
76137;BME280;68622;53.128;17.966;2023-11-21T08:47:41;101157.73;;;3.13;61.90
76137;BME280;68622;53.128;17.966;2023-11-21T08:50:10;101157.23;;;3.23;62.20
76137;BME280;68622;53.128;17.966;2023-11-21T08:52:38;101161.02;;;3.33;60.86
76137;BME280;68622;53.128;17.966;2023-11-21T08:55:05;101155.67;;;3.33;60.97
76137;BME280;68622;53.128;17.966;2023-11-21T08:57:34;101161.11;;;3.34;60.26
76137;BME280;68622;53.128;17.966;2023-11-21T09:00:03;101165.93;;;3.34;59.94
76137;BME280;68622;53.128;17.966;2023-11-21T09:02:31;101165.22;;;3.38;60.09
76137;BME280;68622;53.128;17.966;2023-11-21T09:04:57;101172.95;;;3.44;60.69
76137;BME280;68622;53.128;17.966;2023-11-21T09:07:24;101176.33;;;3.35;59.02
76137;BME280;68622;53.128;17.966;2023-11-21T09:09:51;101180.66;;;3.41;59.39
76137;BME280;68622;53.128;17.966;2023-11-21T09:12:17;101179.59;;;3.45;60.02
76137;BME280;68622;53.128;17.966;2023-11-21T09:14:45;101184.59;;;3.51;60.65
76137;BME280;68622;53.128;17.966;2023-11-21T09:17:10;101183.06;;;3.54;60.34
76137;BME280;68622;53.128;17.966;2023-11-21T09:19:37;101187.06;;;3.56;59.94
76137;BME280;68622;53.128;17.966;2023-11-21T09:22:04;101182.40;;;3.63;60.36
76137;BME280;68622;53.128;17.966;2023-11-21T09:24:34;101187.05;;;3.70;60.01
76137;BME280;68622;53.128;17.966;2023-11-21T09:27:00;101188.95;;;3.79;60.42
76137;BME280;68622;53.128;17.966;2023-11-21T09:29:28;101189.34;;;3.89;60.74
76137;BME280;68622;53.128;17.966;2023-11-21T09:31:55;101196.39;;;3.98;60.50
76137;BME280;68622;53.128;17.966;2023-11-21T09:34:22;101196.11;;;4.00;59.30
76137;BME280;68622;53.128;17.966;2023-11-21T09:36:48;101200.22;;;3.94;58.53
76137;BME280;68622;53.128;17.966;2023-11-21T09:39:15;101207.56;;;3.88;58.51
76137;BME280;68622;53.128;17.966;2023-11-21T09:41:49;101207.34;;;3.86;59.46
76137;BME280;68622;53.128;17.966;2023-11-21T09:44:24;101212.25;;;3.84;58.94
76137;BME280;68622;53.128;17.966;2023-11-21T09:46:54;101214.16;;;3.86;59.59
76137;BME280;68622;53.128;17.966;2023-11-21T09:49:23;101210.10;;;3.85;58.84
76137;BME280;68622;53.128;17.966;2023-11-21T09:51:54;101211.06;;;3.87;58.57
76137;BME280;68622;53.128;17.966;2023-11-21T09:54:22;101211.31;;;3.85;58.83
76137;BME280;68622;53.128;17.966;2023-11-21T09:56:48;101216.88;;;3.87;59.01
76137;BME280;68622;53.128;17.966;2023-11-21T09:59:16;101214.56;;;3.82;58.71
76137;BME280;68622;53.128;17.966;2023-11-21T10:01:42;101217.31;;;3.78;58.63
76137;BME280;68622;53.128;17.966;2023-11-21T10:04:09;101220.31;;;3.77;58.58
76137;BME280;68622;53.128;17.966;2023-11-21T10:06:41;101212.11;;;3.76;59.00
76137;BME280;68622;53.128;17.966;2023-11-21T10:09:10;101216.45;;;3.72;57.79
76137;BME280;68622;53.128;17.966;2023-11-21T10:11:41;101216.01;;;3.64;57.91
76137;BME280;68622;53.128;17.966;2023-11-21T10:14:11;101222.23;;;3.56;57.66
76137;BME280;68622;53.128;17.966;2023-11-21T10:16:41;101220.44;;;3.54;58.48
76137;BME280;68622;53.128;17.966;2023-11-21T10:19:10;101223.59;;;3.53;58.31
76137;BME280;68622;53.128;17.966;2023-11-21T10:21:38;101224.46;;;3.43;57.63
76137;BME280;68622;53.128;17.966;2023-11-21T10:24:05;101227.61;;;3.42;58.40
76137;BME280;68622;53.128;17.966;2023-11-21T10:26:32;101229.46;;;3.35;59.12
76137;BME280;68622;53.128;17.966;2023-11-21T10:28:59;101237.39;;;3.38;59.60
76137;BME280;68622;53.128;17.966;2023-11-21T10:31:32;101239.78;;;3.35;58.89
76137;BME280;68622;53.128;17.966;2023-11-21T10:34:18;101236.30;;;3.32;59.51
76137;BME280;68622;53.128;17.966;2023-11-21T10:36:45;101242.42;;;3.37;58.73
76137;BME280;68622;53.128;17.966;2023-11-21T10:39:18;101251.48;;;3.37;58.82
76137;BME280;68622;53.128;17.966;2023-11-21T10:41:46;101252.23;;;3.36;58.79
76137;BME280;68622;53.128;17.966;2023-11-21T10:44:16;101252.71;;;3.33;59.19
76137;BME280;68622;53.128;17.966;2023-11-21T10:46:50;101249.01;;;3.32;58.77
76137;BME280;68622;53.128;17.966;2023-11-21T10:49:17;101257.99;;;3.24;58.32
76137;BME280;68622;53.128;17.966;2023-11-21T10:51:44;101257.55;;;3.16;57.73
76137;BME280;68622;53.128;17.966;2023-11-21T10:54:10;101257.61;;;3.18;58.27
76137;BME280;68622;53.128;17.966;2023-11-21T10:56:39;101255.91;;;3.14;58.93
76137;BME280;68622;53.128;17.966;2023-11-21T10:59:10;101257.20;;;3.19;58.45
76137;BME280;68622;53.128;17.966;2023-11-21T11:01:44;101255.11;;;3.27;58.96
76137;BME280;68622;53.128;17.966;2023-11-21T11:04:14;101257.19;;;3.30;58.47
76137;BME280;68622;53.128;17.966;2023-11-21T11:06:43;101252.65;;;3.38;59.10
76137;BME280;68622;53.128;17.966;2023-11-21T11:09:13;101258.00;;;3.44;58.27
76137;BME280;68622;53.128;17.966;2023-11-21T11:11:40;101261.02;;;3.49;58.71
76137;BME280;68622;53.128;17.966;2023-11-21T11:14:11;101261.89;;;3.49;58.82
76137;BME280;68622;53.128;17.966;2023-11-21T11:16:38;101264.45;;;3.53;59.13
76137;BME280;68622;53.128;17.966;2023-11-21T11:19:09;101269.30;;;3.52;59.17
76137;BME280;68622;53.128;17.966;2023-11-21T11:21:48;101272.16;;;3.56;59.47
76137;BME280;68622;53.128;17.966;2023-11-21T11:24:29;101272.16;;;3.63;59.39
76137;BME280;68622;53.128;17.966;2023-11-21T11:27:11;101275.49;;;3.65;59.09
76137;BME280;68622;53.128;17.966;2023-11-21T11:29:57;101281.16;;;3.61;58.97
76137;BME280;68622;53.128;17.966;2023-11-21T11:32:38;101285.95;;;3.58;59.02
76137;BME280;68622;53.128;17.966;2023-11-21T11:35:35;101290.98;;;3.57;58.36
76137;BME280;68622;53.128;17.966;2023-11-21T11:38:04;101300.01;;;3.58;58.40
76137;BME280;68622;53.128;17.966;2023-11-21T11:40:40;101310.96;;;3.55;58.31
76137;BME280;68622;53.128;17.966;2023-11-21T11:43:07;101316.27;;;3.49;58.24
76137;BME280;68622;53.128;17.966;2023-11-21T11:45:34;101321.52;;;3.42;57.91
76137;BME280;68622;53.128;17.966;2023-11-21T11:48:02;101330.94;;;3.40;58.71
76137;BME280;68622;53.128;17.966;2023-11-21T11:50:29;101331.84;;;3.35;58.12
76137;BME280;68622;53.128;17.966;2023-11-21T11:53:11;101332.30;;;3.25;57.63
76137;BME280;68622;53.128;17.966;2023-11-21T11:55:38;101334.66;;;3.30;58.60
76137;BME280;68622;53.128;17.966;2023-11-21T11:58:06;101334.14;;;3.30;58.41
76137;BME280;68622;53.128;17.966;2023-11-21T12:03:02;101330.77;;;3.29;58.13
76137;BME280;68622;53.128;17.966;2023-11-21T12:05:31;101331.66;;;3.28;57.89
76137;BME280;68622;53.128;17.966;2023-11-21T12:08:11;101329.23;;;3.22;57.91
76137;BME280;68622;53.128;17.966;2023-11-21T12:10:38;101333.41;;;3.24;58.30
76137;BME280;68622;53.128;17.966;2023-11-21T12:13:07;101328.29;;;3.17;57.83
76137;BME280;68622;53.128;17.966;2023-11-21T12:15:34;101335.86;;;3.19;58.27
76137;BME280;68622;53.128;17.966;2023-11-21T12:18:01;101335.81;;;3.21;59.01
76137;BME280;68622;53.128;17.966;2023-11-21T12:20:27;101338.94;;;3.27;59.16
76137;BME280;68622;53.128;17.966;2023-11-21T12:22:56;101338.38;;;3.31;59.49
76137;BME280;68622;53.128;17.966;2023-11-21T12:25:26;101340.56;;;3.32;59.04
76137;BME280;68622;53.128;17.966;2023-11-21T12:27:58;101339.45;;;3.34;58.82
76137;BME280;68622;53.128;17.966;2023-11-21T12:30:27;101336.01;;;3.30;58.13
76137;BME280;68622;53.128;17.966;2023-11-21T12:32:57;101335.17;;;3.27;57.99
76137;BME280;68622;53.128;17.966;2023-11-21T12:35:25;101338.70;;;3.28;58.83
76137;BME280;68622;53.128;17.966;2023-11-21T12:37:53;101342.33;;;3.27;59.02
76137;BME280;68622;53.128;17.966;2023-11-21T12:40:19;101342.17;;;3.24;58.58
76137;BME280;68622;53.128;17.966;2023-11-21T12:42:47;101343.73;;;3.16;57.80
76137;BME280;68622;53.128;17.966;2023-11-21T12:45:18;101343.02;;;3.20;58.47
76137;BME280;68622;53.128;17.966;2023-11-21T12:47:59;101348.13;;;3.17;58.56
76137;BME280;68622;53.128;17.966;2023-11-21T12:50:27;101353.98;;;3.17;58.50
76137;BME280;68622;53.128;17.966;2023-11-21T12:53:02;101363.98;;;3.15;58.32
76137;BME280;68622;53.128;17.966;2023-11-21T12:55:33;101368.59;;;3.12;58.12